Time;durP1;ratioP1;P1;durP2;ratioP2;P2;SDS_P1;SDS_P2;PMS_P1;PMS_P2;Temp;Humidity;BMP_temperature;BMP_pressure;BME280_temperature;BME280_humidity;BME280_pressure;Samples;Min_cycle;Max_cycle;Signal;HPM_P1;HPM_P2
2022/11/26 00:01:41;;;;;;;4.15;1.52;;;;;;;6.38;65.88;100653.97;4356120;32;33820;-95
2022/11/26 00:04:36;;;;;;;4.00;2.00;;;;;;;6.23;66.27;100655.03;4367005;32;34315;-91
2022/11/26 00:07:21;;;;;;;0.82;0.82;;;;;;;6.25;66.28;100666.34;4382542;32;32763;-91
2022/11/26 00:10:22;;;;;;;2.28;2.10;;;;;;;6.34;66.01;100666.22;4379533;32;33251;-91
2022/11/26 00:13:20;;;;;;;2.78;2.25;;;;;;;6.31;66.06;100670.63;4372314;32;33386;-91
2022/11/26 00:16:16;;;;;;;1.30;1.25;;;;;;;5.98;67.08;100677.16;4361933;32;33820;-90
2022/11/26 00:18:56;;;;;;;2.67;2.47;;;;;;;5.71;68.34;100692.25;4376734;32;33890;-90
2022/11/26 00:21:47;;;;;;;1.50;1.40;;;;;;;6.26;67.00;100681.19;4361007;32;33518;-91
2022/11/26 00:24:25;;;;;;;2.22;2.05;;;;;;;6.36;65.93;100679.31;4362774;32;33277;-91
2022/11/26 00:27:14;;;;;;;2.03;1.90;;;;;;;6.15;66.77;100680.47;4363717;32;33663;-92
2022/11/26 00:30:12;;;;;;;2.35;2.25;;;;;;;6.21;66.60;100680.38;4366159;32;33142;-95
2022/11/26 00:32:58;;;;;;;3.97;3.58;;;;;;;6.33;65.90;100672.38;4380652;32;33311;-94
2022/11/26 00:35:56;;;;;;;1.85;1.75;;;;;;;6.22;66.40;100674.28;4340766;32;32748;-92
2022/11/26 00:38:37;;;;;;;3.35;3.08;;;;;;;6.01;67.03;100680.63;4344980;32;32303;-92
2022/11/26 00:41:34;;;;;;;2.35;1.85;;;;;;;6.15;67.16;100675.22;4377232;32;32825;-91
2022/11/26 00:44:20;;;;;;;1.00;1.00;;;;;;;6.19;66.94;100687.41;4357461;32;32683;-93
2022/11/26 00:47:03;;;;;;;1.75;1.55;;;;;;;6.25;66.82;100681.22;4355879;32;33407;-92
2022/11/26 00:49:59;;;;;;;2.17;1.55;;;;;;;6.35;66.22;100688.09;4378214;32;33993;-92
2022/11/26 00:52:41;;;;;;;2.85;1.27;;;;;;;6.14;66.82;100689.22;4365495;32;32745;-93
2022/11/26 00:55:31;;;;;;;1.90;1.80;;;;;;;6.33;66.51;100682.00;4364967;32;34132;-93
2022/11/26 00:58:26;;;;;;;1.08;0.95;;;;;;;6.33;66.58;100684.63;4394704;32;32721;-92
2022/11/26 01:01:22;;;;;;;4.30;4.00;;;;;;;6.43;66.30;100682.75;4374524;32;33071;-93
2022/11/26 01:04:05;;;;;;;0.77;0.77;;;;;;;6.24;66.93;100690.84;4353893;32;33152;-93
2022/11/26 01:06:57;;;;;;;1.30;1.20;;;;;;;6.30;66.79;100690.75;4353686;32;32935;-93
2022/11/26 01:09:37;;;;;;;2.53;1.25;;;;;;;6.37;66.75;100695.06;4362677;32;32793;-92
2022/11/26 01:12:29;;;;;;;3.03;2.20;;;;;;;6.21;67.26;100696.12;4366246;32;33062;-93
2022/11/26 01:15:09;;;;;;;1.95;1.85;;;;;;;6.24;67.36;100690.84;4361857;32;33615;-93
2022/11/26 01:18:08;;;;;;;;;;;;;;;6.18;67.48;100690.94;4376283;32;33950;-89
2022/11/26 01:20:39;;;;;;;2.00;1.85;;;;;;;6.25;67.36;100686.47;4378795;32;33294;-89
2022/11/26 01:23:12;;;;;;;5.68;3.67;;;;;;;6.14;67.95;100694.47;4372075;32;33411;-88
2022/11/26 01:25:42;;;;;;;5.05;3.00;;;;;;;6.08;67.82;100692.78;4373802;32;33629;-88
2022/11/26 01:28:15;;;;;;;3.50;3.20;;;;;;;6.22;67.58;100695.25;4386408;32;33063;-89
2022/11/26 01:30:44;;;;;;;2.00;1.90;;;;;;;6.23;67.69;100699.59;4375946;32;33940;-89
2022/11/26 01:33:15;;;;;;;3.20;2.95;;;;;;;6.17;67.96;100694.41;4386164;32;33609;-89
2022/11/26 01:35:43;;;;;;;1.48;1.40;;;;;;;6.55;66.88;100693.06;4386617;32;32471;-89
2022/11/26 01:38:14;;;;;;;3.22;2.90;;;;;;;6.67;65.96;100696.41;4396881;32;32999;-88
2022/11/26 01:41:02;;;;;;;3.53;3.33;;;;;;;6.73;65.67;100692.84;4386156;32;33448;-87
2022/11/26 01:43:36;;;;;;;4.00;2.50;;;;;;;6.57;66.08;100689.56;4379186;32;33699;-87
2022/11/26 01:46:16;;;;;;;3.40;2.25;;;;;;;6.40;66.62;100696.75;4369492;32;33088;-87
2022/11/26 01:48:45;;;;;;;6.57;3.22;;;;;;;6.33;67.00;100695.97;4405026;32;33939;-88
2022/11/26 01:51:22;;;;;;;4.43;2.35;;;;;;;6.20;67.76;100689.13;4387974;32;34168;-87
2022/11/26 01:53:54;;;;;;;5.07;1.25;;;;;;;6.40;67.24;100697.63;4398366;32;32523;-90
2022/11/26 01:56:50;;;;;;;1.92;1.83;;;;;;;6.78;65.67;100693.63;4405240;32;33735;-90
2022/11/26 01:59:40;;;;;;;5.28;4.18;;;;;;;6.78;65.21;100688.37;4386292;32;32949;-95
2022/11/26 02:02:33;;;;;;;1.85;1.75;;;;;;;6.70;65.42;100689.41;4341233;32;32890;-95
2022/11/26 02:05:31;;;;;;;2.65;2.45;;;;;;;6.38;66.27;100694.16;4343243;32;32136;-96
2022/11/26 02:12:36;;;;;;;2.00;1.90;;;;;;;6.53;66.64;100694.87;4416257;32;35371;-96
2022/11/26 02:15:25;;;;;;;5.97;3.05;;;;;;;6.20;67.17;100694.37;4358608;32;33131;-96
2022/11/26 02:18:10;;;;;;;2.92;2.72;;;;;;;6.46;66.58;100690.56;4364842;32;32503;-95
2022/11/26 02:21:01;;;;;;;1.70;1.60;;;;;;;6.34;67.11;100691.59;4372481;32;32638;-96
2022/11/26 02:24:05;;;;;;;1.60;1.50;;;;;;;6.27;67.35;100696.06;4381987;32;35204;-95
2022/11/26 02:27:12;;;;;;;2.25;2.15;;;;;;;6.29;67.31;100693.41;4365066;32;33798;-95
2022/11/26 02:30:11;;;;;;;3.20;3.00;;;;;;;6.20;67.63;100699.62;4418425;32;31982;-90
2022/11/26 02:33:03;;;;;;;2.17;2.08;;;;;;;6.51;66.74;100699.28;4384331;32;32890;-90
2022/11/26 02:35:45;;;;;;;0.82;0.80;;;;;;;6.39;67.18;100706.41;4396840;32;34616;-89
2022/11/26 02:38:19;;;;;;;2.20;2.10;;;;;;;6.56;66.68;100707.97;4383147;32;34152;-89
2022/11/26 02:40:51;;;;;;;2.33;1.85;;;;;;;6.52;66.72;100706.25;4397808;32;32450;-92
2022/11/26 02:43:31;;;;;;;5.97;3.55;;;;;;;6.70;66.15;100711.28;4336219;32;33005;-94
2022/11/26 02:46:28;;;;;;;2.12;2.03;;;;;;;6.75;65.86;100709.44;4358678;32;35975;-93
2022/11/26 02:49:10;;;;;;;2.40;2.20;;;;;;;6.55;66.22;100717.59;4382258;32;33317;-93
2022/11/26 02:52:06;;;;;;;2.97;2.78;;;;;;;6.61;66.29;100716.62;4347179;32;34432;-93
2022/11/26 02:54:53;;;;;;;0.90;0.90;;;;;;;6.70;66.02;100724.38;4367378;32;33070;-93
2022/11/26 02:57:43;;;;;;;2.40;2.28;;;;;;;6.72;65.52;100729.63;4334950;33;32498;-93
2022/11/26 03:00:36;;;;;;;2.00;1.83;;;;;;;6.58;66.40;100738.53;4369548;32;33476;-93
2022/11/26 03:03:26;;;;;;;3.78;3.53;;;;;;;6.83;65.23;100733.81;4345396;32;32290;-95
2022/11/26 03:06:18;;;;;;;4.55;2.35;;;;;;;6.71;65.53;100727.88;4377110;32;33186;-94
2022/11/26 03:08:57;;;;;;;6.78;3.55;;;;;;;6.71;65.49;100734.00;4368513;32;32910;-94
2022/11/26 03:12:00;;;;;;;3.07;2.97;;;;;;;6.51;66.24;100728.13;4366491;32;33473;-92
2022/11/26 03:14:40;;;;;;;4.72;4.28;;;;;;;6.44;66.83;100735.19;4395450;32;32554;-91
2022/11/26 03:17:21;;;;;;;1.50;1.40;;;;;;;6.45;66.98;100736.94;4375345;32;33039;-94
2022/11/26 03:20:13;;;;;;;1.02;1.02;;;;;;;6.50;66.91;100739.50;4364344;32;32907;-95
2022/11/26 03:22:52;;;;;;;2.03;1.85;;;;;;;6.53;66.87;100739.47;4390972;32;33765;-94
2022/11/26 03:25:45;;;;;;;;;;;;;;;6.53;66.81;100742.97;4380895;32;32341;-94
2022/11/26 03:28:26;;;;;;;1.45;1.40;;;;;;;6.59;66.77;100745.50;4382911;32;33137;-94
2022/11/26 03:31:17;;;;;;;1.27;1.20;;;;;;;6.56;66.81;100744.69;4359330;32;32871;-92
2022/11/26 03:33:58;;;;;;;1.95;1.25;;;;;;;6.53;66.96;100745.59;4410620;32;33438;-92
2022/11/26 03:36:50;;;;;;;1.42;1.42;;;;;;;6.52;67.13;100756.09;4368687;32;31972;-94
2022/11/26 03:39:30;;;;;;;2.55;1.90;;;;;;;6.56;67.27;100755.19;4425631;32;33703;-93
2022/11/26 03:42:19;;;;;;;1.65;1.58;;;;;;;6.57;67.24;100762.16;4354583;32;33023;-93
2022/11/26 03:49:27;;;;;;;0.47;0.37;;;;;;;6.86;66.58;100759.16;4395779;32;35293;-94
2022/11/26 03:52:13;;;;;;;3.62;2.95;;;;;;;6.93;66.05;100764.34;4410528;32;32802;-93
2022/11/26 03:55:09;;;;;;;4.22;3.00;;;;;;;6.91;65.91;100758.22;4377930;32;34516;-95
2022/11/26 03:57:51;;;;;;;1.95;1.85;;;;;;;6.74;66.95;100770.72;4378182;32;33045;-94
2022/11/26 04:00:43;;;;;;;2.83;2.42;;;;;;;6.56;67.77;100765.69;4354543;32;32650;-93
2022/11/26 04:03:26;;;;;;;1.55;1.45;;;;;;;6.76;67.11;100765.44;4380618;32;32986;-92
2022/11/26 04:06:20;;;;;;;6.47;4.45;;;;;;;7.12;65.66;100761.44;4346178;32;34506;-88
2022/11/26 04:08:49;;;;;;;2.20;2.00;;;;;;;7.20;64.92;100770.06;4329150;33;33825;-89
2022/11/26 04:11:39;;;;;;;1.30;1.23;;;;;;;7.24;64.53;100770.91;4383183;32;34102;-91
2022/11/26 04:14:19;;;;;;;1.65;1.37;;;;;;;7.09;64.39;100772.84;4369438;32;33321;-90
2022/11/26 04:17:15;;;;;;;2.22;2.08;;;;;;;6.89;65.24;100774.91;4349907;32;32879;-89
2022/11/26 04:19:44;;;;;;;3.50;3.20;;;;;;;6.79;65.55;100776.78;4362725;32;32526;-89
2022/11/26 04:22:12;;;;;;;2.40;2.03;;;;;;;6.76;65.82;100774.16;4358324;32;32584;-88
2022/11/26 04:24:40;;;;;;;1.95;1.80;;;;;;;6.77;65.77;100775.03;4357242;32;32786;-89
2022/11/26 04:27:08;;;;;;;2.08;1.98;;;;;;;6.64;66.08;100771.69;4374004;32;33164;-89
2022/11/26 04:29:49;;;;;;;5.80;2.25;;;;;;;6.37;67.15;100779.00;4417831;32;32122;-89
2022/11/26 04:32:18;;;;;;;2.70;2.50;;;;;;;6.29;67.38;100783.47;4390181;32;33189;-90
2022/11/26 04:35:08;;;;;;;2.40;2.30;;;;;;;6.31;67.87;100786.91;4384471;32;33241;-91
2022/11/26 04:37:51;;;;;;;2.30;2.20;;;;;;;6.25;68.10;100794.00;4367642;32;33063;-92
2022/11/26 04:40:43;;;;;;;2.95;2.78;;;;;;;6.58;67.66;100791.00;4357237;32;33650;-91
2022/11/26 04:43:27;;;;;;;4.97;2.78;;;;;;;6.84;66.33;100801.22;4356455;32;32789;-88
2022/11/26 04:45:56;;;;;;;1.90;1.80;;;;;;;6.87;66.07;100801.16;4362194;32;34028;-90
2022/11/26 04:48:24;;;;;;;1.75;1.37;;;;;;;6.85;66.02;100805.56;4372975;32;33129;-90
2022/11/26 04:50:52;;;;;;;3.42;3.22;;;;;;;6.56;66.92;100813.78;4356433;32;34491;-89
2022/11/26 04:53:21;;;;;;;1.95;1.85;;;;;;;6.81;66.66;100813.50;4357759;32;33310;-89
2022/11/26 04:55:51;;;;;;;2.97;1.45;;;;;;;7.01;65.39;100813.25;4367144;32;33054;-90
2022/11/26 04:58:19;;;;;;;3.62;1.37;;;;;;;6.94;65.48;100817.72;4362009;32;33267;-90
2022/11/26 05:00:51;;;;;;;2.25;2.15;;;;;;;6.80;66.01;100812.63;4357063;32;33445;-90
2022/11/26 05:03:28;;;;;;;2.90;2.70;;;;;;;6.61;67.00;100821.59;4371077;32;32193;-90
2022/11/26 05:06:17;;;;;;;1.00;0.93;;;;;;;6.73;66.69;100829.31;4369458;32;32912;-92
2022/11/26 05:08:57;;;;;;;2.30;2.10;;;;;;;6.73;66.71;100826.69;4390363;32;33316;-92
2022/11/26 05:11:48;;;;;;;1.55;1.45;;;;;;;6.66;67.09;100830.28;4370142;32;32730;-88
2022/11/26 05:14:17;;;;;;;0.88;0.88;;;;;;;6.68;67.27;100833.75;4363971;32;33398;-88
2022/11/26 05:16:45;;;;;;;3.50;1.52;;;;;;;6.59;67.63;100836.47;4363328;32;33679;-88
2022/11/26 05:19:14;;;;;;;2.53;1.58;;;;;;;6.40;68.41;100844.53;4375807;32;33654;-88
2022/11/26 05:21:42;;;;;;;2.17;1.12;;;;;;;6.44;68.31;100834.88;4375112;32;33123;-88
2022/11/26 05:24:10;;;;;;;1.90;1.62;;;;;;;6.56;68.22;100833.91;4364779;32;32061;-91
2022/11/26 05:26:53;;;;;;;2.55;2.35;;;;;;;6.52;68.34;100833.06;4358645;32;33370;-92
2022/11/26 05:29:47;;;;;;;4.15;3.50;;;;;;;6.81;67.91;100835.34;4362126;32;33319;-92
2022/11/26 05:32:30;;;;;;;2.17;2.08;;;;;;;6.75;67.53;100851.19;4373984;32;34143;-93
2022/11/26 05:35:23;;;;;;;9.05;3.30;;;;;;;6.87;67.58;100845.78;4379964;32;32657;-91
2022/11/26 05:38:04;;;;;;;1.20;1.15;;;;;;;7.07;66.30;100852.53;4382131;32;34582;-92
2022/11/26 05:40:49;;;;;;;2.05;1.95;;;;;;;7.05;66.30;100856.97;4355509;32;33150;-91
2022/11/26 05:43:40;;;;;;;0.73;0.73;;;;;;;6.86;66.71;100859.78;4368880;32;32626;-93
2022/11/26 05:46:20;;;;;;;4.10;3.80;;;;;;;6.76;67.09;100865.19;4352332;32;32950;-93
2022/11/26 05:49:11;;;;;;;2.45;2.35;;;;;;;7.05;66.05;100859.59;4363270;32;32648;-93
2022/11/26 05:51:51;;;;;;;3.33;3.03;;;;;;;6.98;66.13;100876.28;4391700;32;33169;-90
2022/11/26 05:54:27;;;;;;;1.85;1.75;;;;;;;6.52;67.51;100872.41;4369623;32;32821;-91
2022/11/26 05:57:00;;;;;;;1.80;1.70;;;;;;;6.67;67.55;100874.00;4382310;32;33347;-92
2022/11/26 06:02:24;;;;;;;1.58;1.48;;;;;;;7.10;66.06;100868.28;4372592;32;32993;-90
2022/11/26 06:04:54;;;;;;;10.55;1.35;;;;;;;7.05;66.08;100875.34;4367016;32;32780;-89
2022/11/26 06:07:27;;;;;;;0.47;0.47;;;;;;;6.95;66.43;100889.47;4379857;32;34148;-89
2022/11/26 06:09:57;;;;;;;3.97;3.78;;;;;;;6.95;66.55;100887.72;4378367;32;33616;-92
2022/11/26 06:12:27;;;;;;;2.12;1.42;;;;;;;6.68;67.28;100894.13;4372562;32;33494;-93
2022/11/26 06:15:20;;;;;;;2.47;2.28;;;;;;;6.92;67.02;100887.72;4367613;32;32705;-90
2022/11/26 06:18:01;;;;;;;1.20;1.20;;;;;;;7.08;65.60;100886.69;4362070;32;33214;-92
2022/11/26 06:20:54;;;;;;;8.32;1.48;;;;;;;6.91;66.22;100894.75;4365196;32;32518;-91
2022/11/26 06:23:37;;;;;;;3.87;3.55;;;;;;;6.51;67.45;100898.69;4410261;32;32586;-88
2022/11/26 06:26:08;;;;;;;3.00;2.70;;;;;;;6.60;67.93;100898.59;4410210;32;33865;-88
2022/11/26 06:28:37;;;;;;;1.77;1.67;;;;;;;6.44;68.46;100904.84;4409963;32;33290;-88
2022/11/26 06:31:09;;;;;;;0.10;0.10;;;;;;;6.46;68.49;100900.44;4409584;32;34588;-88
2022/11/26 06:33:45;;;;;;;2.10;1.80;;;;;;;6.47;68.51;100904.84;4397731;32;32583;-88
2022/11/26 06:36:15;;;;;;;3.22;2.97;;;;;;;6.81;67.76;100905.38;4402025;32;32834;-89
2022/11/26 06:39:09;;;;;;;3.12;2.92;;;;;;;6.97;66.69;100903.44;4413789;32;33481;-90
2022/11/26 06:41:39;;;;;;;3.45;2.30;;;;;;;7.13;65.56;100898.00;4399949;32;33219;-89
2022/11/26 06:44:08;;;;;;;2.50;2.35;;;;;;;7.00;66.17;100911.28;4399754;32;33991;-89
2022/11/26 06:46:36;;;;;;;2.65;1.37;;;;;;;6.97;66.08;100903.44;4399796;32;33269;-90
2022/11/26 06:49:05;;;;;;;1.55;1.33;;;;;;;6.61;67.61;100905.56;4400270;32;33028;-90
2022/11/26 06:51:47;;;;;;;2.25;1.42;;;;;;;6.66;67.68;100909.91;4380894;32;34407;-89
2022/11/26 06:54:18;;;;;;;10.00;4.75;;;;;;;6.68;68.12;100918.59;4366765;32;32739;-89
2022/11/26 06:56:47;;;;;;;10.23;7.95;;;;;;;6.73;67.77;100921.19;4367157;32;32387;-89
2022/11/26 06:59:16;;;;;;;6.68;3.50;;;;;;;6.60;68.49;100920.47;4379498;32;33499;-89
2022/11/26 07:01:51;;;;;;;4.22;3.83;;;;;;;6.88;68.20;100926.31;4380130;32;33219;-91
2022/11/26 07:04:25;;;;;;;1.20;1.20;;;;;;;6.97;67.92;100930.56;4378874;32;33224;-91
2022/11/26 07:07:13;;;;;;;2.53;2.33;;;;;;;6.92;67.67;100940.25;4380623;32;32846;-90
2022/11/26 07:10:14;;;;;;;0.60;0.60;;;;;;;6.87;67.72;100937.66;4360082;32;30105;-92
2022/11/26 07:13:06;;;;;;;8.98;3.78;;;;;;;6.85;67.98;100942.06;4352014;32;33058;-91
2022/11/26 07:15:40;;;;;;;2.85;2.62;;;;;;;7.09;67.17;100940.06;4361132;32;33244;-90
2022/11/26 07:18:09;;;;;;;4.15;3.25;;;;;;;7.11;66.88;100938.28;4362421;32;33244;-89
2022/11/26 07:20:39;;;;;;;3.15;2.95;;;;;;;7.06;67.33;100940.09;4336192;32;32127;-90
2022/11/26 07:23:12;;;;;;;2.85;2.75;;;;;;;6.93;67.90;100935.00;4350332;32;33603;-88
2022/11/26 07:25:42;;;;;;;3.72;3.47;;;;;;;7.10;67.62;100937.41;4358070;32;34165;-88
2022/11/26 07:28:14;;;;;;;1.52;1.45;;;;;;;7.31;66.81;100945.94;4361705;32;32879;-89
2022/11/26 07:34:29;;;;;;;2.65;2.45;;;;;;;7.20;66.94;100948.69;4364244;32;33063;-89
2022/11/26 07:36:59;;;;;;;1.65;1.08;;;;;;;7.14;67.80;100948.78;4352079;32;34299;-88
2022/11/26 07:39:29;;;;;;;0.93;0.93;;;;;;;7.59;65.58;100941.19;4354264;32;34069;-93
2022/11/26 07:42:37;;;;;;;0.68;0.68;;;;;;;7.40;66.28;100933.53;4344925;32;32682;-94
2022/11/26 07:45:06;;;;;;;6.05;3.00;;;;;;;7.03;67.80;100948.03;4337540;32;33606;-93
2022/11/26 07:47:49;;;;;;;3.97;3.62;;;;;;;7.22;67.36;100953.94;4395064;32;33336;-93
2022/11/26 07:50:32;;;;;;;2.33;2.12;;;;;;;7.48;66.60;100949.22;4385721;32;32421;-92
2022/11/26 07:53:17;;;;;;;5.40;3.85;;;;;;;7.49;66.26;100950.97;4331092;32;33292;-93
2022/11/26 07:56:26;;;;;;;3.92;3.67;;;;;;;7.53;65.71;100947.41;4332896;33;33311;-96
2022/11/26 07:59:14;;;;;;;4.85;4.45;;;;;;;7.44;65.66;100953.66;4320238;33;35671;-91
2022/11/26 08:01:58;;;;;;;2.10;1.55;;;;;;;7.29;66.69;100953.84;4361942;32;33133;-91
2022/11/26 08:05:07;;;;;;;0.62;0.62;;;;;;;7.05;67.66;100954.12;4350758;32;31916;-91
2022/11/26 08:07:59;;;;;;;2.67;2.50;;;;;;;7.03;68.61;100956.78;4331792;32;35097;-91
2022/11/26 08:10:44;;;;;;;1.50;1.40;;;;;;;7.40;66.89;100966.84;4380553;32;33271;-92
2022/11/26 08:13:44;;;;;;;2.15;1.98;;;;;;;7.25;67.66;100969.66;4359508;32;34548;-92
2022/11/26 08:19:26;;;;;;;3.08;2.83;;;;;;;7.24;67.51;100976.66;4362044;32;34367;-90
2022/11/26 08:22:14;;;;;;;2.47;2.28;;;;;;;7.10;68.09;100992.56;4371155;32;32896;-91
2022/11/26 08:27:48;;;;;;;2.45;2.25;;;;;;;6.93;68.80;101008.53;4379299;32;33032;-89
2022/11/26 08:30:18;;;;;;;0.88;0.85;;;;;;;7.01;68.44;101004.94;4379798;32;33399;-90
2022/11/26 08:35:29;;;;;;;2.13;2.00;;;;;;;7.16;68.34;101003.00;4379749;32;32363;-89
2022/11/26 08:38:19;;;;;;;1.25;1.25;;;;;;;6.99;69.13;101004.09;4380537;32;33514;-88
2022/11/26 08:40:53;;;;;;;2.78;2.58;;;;;;;7.22;68.45;101001.22;4368066;32;32960;-88
2022/11/26 08:43:22;;;;;;;1.67;1.58;;;;;;;7.18;69.03;101001.25;4379309;32;33351;-89
2022/11/26 08:46:11;;;;;;;2.40;2.20;;;;;;;6.74;70.97;101017.44;4380968;32;32442;-89
2022/11/26 08:48:44;;;;;;;1.65;1.55;;;;;;;7.08;69.79;101011.88;4379550;32;33382;-88
2022/11/26 08:51:16;;;;;;;4.05;2.62;;;;;;;6.64;71.01;101021.00;4366392;32;33320;-88
2022/11/26 08:53:48;;;;;;;2.35;2.10;;;;;;;7.12;70.16;101003.06;4379096;32;33307;-89
2022/11/26 08:56:21;;;;;;;1.70;1.60;;;;;;;7.32;69.16;101005.50;4365008;32;33719;-89
2022/11/26 08:58:52;;;;;;;1.15;1.15;;;;;;;7.36;69.11;101008.06;4367393;32;34024;-88
2022/11/26 09:01:26;;;;;;;2.57;2.43;;;;;;;7.34;68.17;101004.56;4379085;32;33793;-88
2022/11/26 09:03:58;;;;;;;2.10;2.00;;;;;;;7.43;68.27;101008.88;4367034;32;32662;-88
2022/11/26 09:06:29;;;;;;;5.10;2.83;;;;;;;7.50;68.07;101007.91;4366258;32;32903;-89
2022/11/26 09:09:20;;;;;;;3.20;2.62;;;;;;;7.59;67.76;101009.53;4365901;32;33408;-89
2022/11/26 09:11:53;;;;;;;;;;;;;;;7.51;67.78;101006.16;4390899;32;33896;-88
2022/11/26 09:14:23;;;;;;;;;;;;;;;7.41;67.50;101013.28;4365739;32;33342;-88
2022/11/26 09:16:56;;;;;;;1.25;1.20;;;;;;;7.55;67.56;101010.47;4366460;32;33344;-89
2022/11/26 09:19:27;;;;;;;3.08;2.92;;;;;;;7.70;67.56;101012.94;4377565;32;32915;-89
2022/11/26 09:21:57;;;;;;;0.70;0.70;;;;;;;7.98;67.10;101017.84;4377583;32;32715;-89
2022/11/26 09:24:26;;;;;;;0.75;0.75;;;;;;;8.22;66.18;101012.22;4377173;32;33922;-88
2022/11/26 09:27:04;;;;;;;6.45;1.05;;;;;;;8.11;66.97;101014.13;4379236;32;32561;-89
2022/11/26 09:29:46;;;;;;;2.97;2.78;;;;;;;8.16;66.77;101023.69;4378396;32;33708;-89
2022/11/26 09:32:19;;;;;;;4.85;3.65;;;;;;;7.98;67.79;101020.47;4379556;32;32860;-89
2022/11/26 09:35:04;;;;;;;3.25;2.95;;;;;;;8.11;67.12;101025.50;4380105;32;33838;-88
2022/11/26 09:37:36;;;;;;;3.83;3.53;;;;;;;8.36;66.76;101025.19;4380066;32;33893;-89
2022/11/26 09:40:20;;;;;;;1.15;1.15;;;;;;;8.04;67.62;101023.87;4367660;32;33179;-89
2022/11/26 09:43:04;;;;;;;7.30;2.72;;;;;;;8.11;67.37;101022.88;4354978;32;32925;-89
2022/11/26 09:45:41;;;;;;;2.92;2.75;;;;;;;8.48;66.20;101025.00;4378921;32;33094;-89
2022/11/26 09:48:22;;;;;;;1.65;1.55;;;;;;;8.47;66.58;101023.28;4378917;32;32950;-88
2022/11/26 09:51:02;;;;;;;2.10;1.92;;;;;;;8.62;66.38;101027.41;4377411;32;32468;-88
2022/11/26 09:53:42;;;;;;;0.52;0.52;;;;;;;8.66;66.68;101022.06;4388751;32;33059;-89
2022/11/26 09:56:31;;;;;;;2.33;2.22;;;;;;;8.69;66.24;101018.53;4378625;32;33568;-88
2022/11/26 09:59:28;;;;;;;0.52;0.52;;;;;;;8.92;64.81;101018.12;4380927;32;34907;-90
2022/11/26 10:02:59;;;;;;;4.53;3.47;;;;;;;8.74;65.40;101015.84;4380571;32;32674;-89
2022/11/26 10:06:00;;;;;;;0.80;0.80;;;;;;;9.01;65.13;101014.47;4380069;32;33215;-89
2022/11/26 10:08:48;;;;;;;0.60;0.60;;;;;;;8.93;65.37;101020.75;4366709;32;32968;-89
2022/11/26 10:11:51;;;;;;;2.53;2.33;;;;;;;9.08;64.96;101021.38;4364511;32;33156;-91
2022/11/26 10:14:58;;;;;;;0.82;0.80;;;;;;;9.13;64.86;101024.78;4343679;32;32587;-91
2022/11/26 10:17:56;;;;;;;3.03;2.80;;;;;;;9.41;64.06;101026.00;4355165;32;33497;-91
2022/11/26 10:21:17;;;;;;;1.02;1.00;;;;;;;9.52;63.90;101022.28;4352484;32;33068;-91
2022/11/26 10:24:26;;;;;;;1.20;1.10;;;;;;;9.51;64.05;101015.28;4341860;32;32639;-93
2022/11/26 10:27:20;;;;;;;2.60;2.37;;;;;;;9.52;64.05;101017.88;4389162;32;33905;-88
2022/11/26 10:30:02;;;;;;;3.30;3.00;;;;;;;9.81;63.31;101033.13;4376370;32;32981;-89
2022/11/26 10:32:38;;;;;;;3.08;2.78;;;;;;;9.94;63.07;101021.41;4367511;32;32984;-88
2022/11/26 10:35:16;;;;;;;4.32;3.95;;;;;;;10.14;62.70;101020.09;4374107;32;33412;-88
2022/11/26 10:37:47;;;;;;;2.25;2.05;;;;;;;9.95;63.49;101022.28;4361895;32;32902;-88
2022/11/26 10:40:28;;;;;;;1.58;1.55;;;;;;;10.33;62.17;101024.09;4376001;32;33204;-88
2022/11/26 10:43:07;;;;;;;4.15;3.67;;;;;;;10.13;62.10;101027.16;4363320;32;33646;-88
2022/11/26 10:45:48;;;;;;;3.72;3.42;;;;;;;10.06;62.96;101022.91;4387082;32;34560;-88
2022/11/26 10:48:23;;;;;;;5.15;3.00;;;;;;;10.12;62.88;101024.56;4368043;32;32779;-88
2022/11/26 10:51:06;;;;;;;3.12;2.35;;;;;;;10.01;63.71;101025.62;4372748;32;33233;-88
2022/11/26 10:53:57;;;;;;;2.22;2.03;;;;;;;9.90;64.35;101022.38;4378068;32;33271;-88
2022/11/26 10:56:40;;;;;;;12.43;3.87;;;;;;;9.96;64.12;101027.50;4374096;32;33852;-88
2022/11/26 10:59:51;;;;;;;2.85;2.62;;;;;;;10.22;63.33;101026.09;4364988;32;33540;-87
2022/11/26 11:05:11;;;;;;;1.15;1.15;;;;;;;10.37;62.82;101025.75;4380404;32;32632;-88
2022/11/26 11:07:43;;;;;;;5.18;3.33;;;;;;;10.23;63.69;101025.16;4378850;32;33654;-87
2022/11/26 11:10:12;;;;;;;1.87;1.77;;;;;;;10.58;62.01;101024.38;4367431;32;32392;-88
2022/11/26 11:13:10;;;;;;;2.87;2.12;;;;;;;10.42;62.58;101026.50;4391674;32;34671;-87
2022/11/26 11:15:44;;;;;;;2.90;1.95;;;;;;;10.27;63.38;101024.22;4378879;32;34268;-87
2022/11/26 11:20:57;;;;;;;1.80;1.62;;;;;;;10.32;63.56;101014.44;4377394;32;33033;-88
2022/11/26 11:23:31;;;;;;;1.02;1.02;;;;;;;10.24;63.33;101011.97;4379457;32;34016;-88
2022/11/26 11:26:24;;;;;;;1.98;1.87;;;;;;;10.12;63.66;101016.63;4377210;32;34802;-87
2022/11/26 11:28:55;;;;;;;1.25;1.20;;;;;;;9.93;64.35;101003.84;4364024;32;33305;-87
2022/11/26 11:31:27;;;;;;;0.60;0.60;;;;;;;10.00;64.39;101010.72;4374338;32;32523;-88
2022/11/26 11:34:19;;;;;;;;;;;;;;;10.17;63.73;101012.12;4375870;32;33045;-88
2022/11/26 11:36:59;;;;;;;2.80;2.60;;;;;;;10.42;63.17;101013.31;4374711;32;33290;-88
2022/11/26 11:39:32;;;;;;;1.98;1.87;;;;;;;10.67;62.43;100999.50;4371585;32;34102;-87
2022/11/26 11:42:15;;;;;;;5.70;2.83;;;;;;;10.54;63.03;101000.69;4366816;32;32887;-87
2022/11/26 11:44:51;;;;;;;7.20;3.90;;;;;;;10.28;63.83;101010.13;4376012;32;32038;-92
2022/11/26 11:47:51;;;;;;;1.30;1.23;;;;;;;10.61;63.11;101004.94;4356348;32;34801;-92
2022/11/26 11:50:47;;;;;;;3.90;3.65;;;;;;;10.46;63.54;101004.41;4381567;32;33742;-91
2022/11/26 11:53:49;;;;;;;2.28;2.00;;;;;;;10.17;64.08;101007.72;4375147;32;32273;-91
2022/11/26 11:56:51;;;;;;;1.15;1.15;;;;;;;10.33;63.45;101002.97;4348891;32;32118;-92
2022/11/26 11:59:57;;;;;;;3.97;3.10;;;;;;;10.15;64.18;101003.34;4368573;32;32680;-91
2022/11/26 12:03:42;;;;;;;2.03;1.92;;;;;;;9.86;65.28;101002.22;4381035;32;32829;-92
2022/11/26 12:06:52;;;;;;;2.05;1.65;;;;;;;9.96;65.11;101009.03;4417277;32;31951;-91
2022/11/26 12:09:48;;;;;;;5.35;2.08;;;;;;;9.82;65.30;101002.31;4354054;32;33098;-91
2022/11/26 12:15:50;;;;;;;4.00;2.22;;;;;;;10.41;63.06;101010.72;4408781;32;32438;-91
2022/11/26 12:18:55;;;;;;;2.22;1.55;;;;;;;10.38;63.29;101010.78;4330829;33;33577;-92
2022/11/26 12:21:47;;;;;;;1.48;1.37;;;;;;;10.16;63.92;101013.00;4345230;32;32810;-91
2022/11/26 12:24:51;;;;;;;1.90;1.80;;;;;;;10.06;64.24;101014.97;4369714;32;34490;-92
2022/11/26 12:27:43;;;;;;;2.78;2.58;;;;;;;10.47;62.36;101014.06;4369247;32;32969;-92
2022/11/26 12:30:21;;;;;;;2.90;2.70;;;;;;;10.28;63.37;101017.19;4374008;32;32316;-90
2022/11/26 12:33:03;;;;;;;2.58;2.33;;;;;;;9.83;64.64;101018.12;4387946;32;33086;-91
2022/11/26 12:35:48;;;;;;;5.22;3.97;;;;;;;9.78;65.11;101022.66;4399953;32;33069;-90
2022/11/26 12:38:26;;;;;;;5.07;3.03;;;;;;;9.92;64.37;101019.69;4402905;32;33994;-90
2022/11/26 12:41:19;;;;;;;3.78;2.15;;;;;;;9.96;64.58;101021.34;4377248;32;32863;-90
2022/11/26 12:44:17;;;;;;;3.72;2.55;;;;;;;9.94;64.91;101018.78;4391565;32;33622;-90
2022/11/26 12:50:31;;;;;;;11.15;3.72;;;;;;;10.29;63.68;101011.00;4391495;32;33462;-90
2022/11/26 12:53:46;;;;;;;3.67;3.22;;;;;;;10.03;64.71;101014.19;4380046;32;33121;-90
2022/11/26 12:56:30;;;;;;;2.50;2.40;;;;;;;9.97;65.32;101018.72;4390658;32;32229;-90
2022/11/26 12:59:41;;;;;;;3.40;1.73;;;;;;;10.04;64.83;101016.78;4395068;32;32871;-91
2022/11/26 13:02:19;;;;;;;2.50;2.30;;;;;;;10.17;64.55;101012.12;4414196;32;32900;-91
2022/11/26 13:05:54;;;;;;;1.33;1.25;;;;;;;10.13;64.19;101005.16;4384189;32;33088;-90
2022/11/26 13:08:26;;;;;;;2.22;2.03;;;;;;;10.31;63.80;101010.06;4375051;32;32903;-90
2022/11/26 13:11:18;;;;;;;1.52;1.42;;;;;;;10.13;64.94;101021.88;4389150;32;33056;-90
2022/11/26 13:14:17;;;;;;;2.95;2.75;;;;;;;10.20;64.80;101019.94;4388143;32;33643;-90
2022/11/26 13:17:10;;;;;;;3.08;2.67;;;;;;;10.27;64.99;101024.22;4388995;32;32978;-91
2022/11/26 13:20:28;;;;;;;2.97;2.78;;;;;;;10.44;64.38;101016.81;4380653;32;34451;-91
2022/11/26 13:23:50;;;;;;;2.53;1.98;;;;;;;10.25;64.81;101015.47;4383151;32;34153;-91
2022/11/26 13:27:02;;;;;;;4.25;3.95;;;;;;;10.51;64.26;101015.72;4384315;32;33454;-91
2022/11/26 13:30:14;;;;;;;1.73;1.65;;;;;;;10.37;64.65;101025.75;4360913;32;32125;-91